Terminal Aerodrome Forecast
Issued by NWS Glasgow, MT

Home | Current Version | Previous Version | Text Only | Print | Product List | Glossary On
Versions: 1 2 3 4 5 6 7 8 9 10 11 12
000
FTUS45 KGGW 200500
TAFGGW
TAF
KGGW 200520Z 2006/2106 VRB06KT P6SM SCT120
     FM201200 VRB03KT P6SM BKN120
     FM201800 VRB03KT P6SM VCTS BKN045CB
     FM210000 VRB04KT P6SM SCT060=

USA.gov is the U.S. government's official web portal to all federal, state and local government web resources and services.